createdAt,value
2022-08-20T00:03:09.886Z,8.2
2022-08-20T00:05:16.977Z,8.2
2022-08-20T00:07:20.787Z,7.6
2022-08-20T00:09:24.547Z,8.3
2022-08-20T00:11:29.013Z,8.3
2022-08-20T00:13:32.175Z,7.2
2022-08-20T00:15:35.969Z,7.7
2022-08-20T00:17:39.781Z,8.9
2022-08-20T00:19:46.874Z,8.8
2022-08-20T00:21:50.679Z,8.6
2022-08-20T00:23:54.491Z,8.3
2022-08-20T00:25:58.289Z,8.4
2022-08-20T00:28:02.109Z,8.5
2022-08-20T00:30:05.914Z,8.8
2022-08-20T00:32:09.713Z,8.2
2022-08-20T00:36:20.637Z,8.5
2022-08-20T00:38:24.431Z,7.8
2022-08-20T00:40:28.222Z,8.4
2022-08-20T00:42:32.057Z,8.7
2022-08-20T00:44:35.850Z,8.2
2022-08-20T00:53:57.919Z,9.1
2022-08-20T00:56:01.730Z,9
2022-08-20T00:58:05.706Z,8.8
2022-08-20T01:00:09.359Z,8.2
2022-08-20T01:02:18.192Z,8.3
2022-08-20T01:04:21.895Z,8.8
2022-08-20T01:06:25.702Z,7.8
2022-08-20T01:08:29.448Z,9
2022-08-20T01:10:33.260Z,9.3
2022-08-20T01:12:37.067Z,9.3
2022-08-20T01:14:40.867Z,8.9
2022-08-20T01:16:47.985Z,9
2022-08-20T01:18:51.777Z,8
2022-08-20T01:20:55.589Z,8.2
2022-08-20T01:22:59.417Z,8.7
2022-08-20T01:25:03.219Z,9.2
2022-08-20T01:27:07.022Z,8.5
2022-08-20T01:29:10.834Z,7.8
2022-08-20T01:33:21.737Z,8.1
2022-08-20T01:35:25.545Z,8.2
2022-08-20T01:37:31.638Z,8.1
2022-08-20T01:39:33.180Z,9.3
2022-08-20T01:41:36.957Z,8.9
2022-08-20T01:43:40.896Z,8.3
2022-08-20T01:45:48.687Z,9.6
2022-08-20T01:47:51.720Z,9.1
2022-08-20T01:49:55.501Z,7.1
2022-08-20T01:50:59.040Z,8.1
2022-08-20T01:53:03.175Z,7.6
2022-08-20T01:55:06.635Z,8.5
2022-08-20T01:57:10.450Z,8.6
2022-08-20T01:59:17.541Z,8.1
2022-08-20T02:01:21.399Z,8.3
2022-08-20T02:03:25.160Z,9
2022-08-20T02:05:29.942Z,8.5
2022-08-20T02:07:32.798Z,7.5
2022-08-20T02:11:40.433Z,8.6
2022-08-20T02:15:51.360Z,8.2
2022-08-20T02:19:58.950Z,8.8
2022-08-20T02:22:02.778Z,8.8
2022-08-20T02:26:10.422Z,7.9
2022-08-20T02:28:17.518Z,9.2
2022-08-20T02:30:28.199Z,9
2022-08-20T02:32:33.945Z,8.6
2022-08-20T02:34:28.951Z,7.8
2022-08-20T02:36:32.764Z,8
2022-08-20T02:38:36.593Z,7.8
2022-08-20T02:40:40.405Z,7.9
2022-08-20T02:49:19.807Z,9.9
2022-08-20T02:51:30.536Z,8.9
2022-08-20T02:55:34.553Z,7.6
2022-08-20T02:57:38.338Z,8.2
2022-08-20T02:59:42.178Z,7.9
2022-08-20T03:01:45.955Z,7.5
2022-08-20T03:10:04.534Z,7.9
2022-08-20T03:12:08.342Z,8.1
2022-08-20T03:14:12.176Z,8.8
2022-08-20T03:20:23.842Z,7.8
2022-08-20T03:24:34.550Z,8.7
2022-08-20T03:28:42.219Z,8.5
2022-08-20T03:30:46.006Z,9.1
2022-08-20T03:34:53.622Z,8.8
2022-08-20T03:39:04.617Z,8.5
2022-08-20T03:41:08.418Z,10
2022-08-20T03:43:12.229Z,8.5
2022-08-20T03:46:23.641Z,7.9
2022-08-20T03:48:23.417Z,8.7
2022-08-20T03:56:42.016Z,7.4
2022-08-20T04:04:57.292Z,8
2022-08-20T04:07:04.422Z,8.7
2022-08-20T04:09:09.714Z,8
2022-08-20T04:11:12.062Z,8.3
2022-08-20T04:13:15.898Z,7.8
2022-08-20T04:17:23.517Z,8.6
2022-08-20T04:21:34.488Z,8.3
2022-08-20T04:23:38.300Z,8.3
2022-08-20T04:25:43.198Z,8.1
2022-08-20T04:27:45.960Z,8.3
2022-08-20T04:31:53.607Z,8.5
2022-08-20T04:36:04.552Z,7.6
2022-08-20T04:38:08.381Z,8.6
2022-08-20T04:40:12.374Z,7.5
2022-08-20T04:43:19.600Z,7.9
2022-08-20T04:45:23.433Z,9.2
2022-08-20T04:47:34.687Z,8.7
2022-08-20T04:49:34.355Z,10.2
2022-08-20T04:51:38.199Z,9.2
2022-08-20T04:53:42.011Z,8.7
2022-08-20T04:55:45.860Z,8.8
2022-08-20T04:57:49.682Z,8.1
2022-08-20T04:59:57.703Z,8.1
2022-08-20T05:01:57.328Z,8.6
2022-08-20T05:04:04.427Z,8.7
2022-08-20T05:06:08.226Z,8.7
2022-08-20T05:08:18.798Z,9.4
2022-08-20T05:10:15.887Z,7.7
2022-08-20T05:12:19.734Z,9
2022-08-20T05:14:23.547Z,8.1
2022-08-20T05:16:27.398Z,8.2
2022-08-20T05:18:34.488Z,9
2022-08-20T05:20:38.321Z,9.3
2022-08-20T05:22:42.169Z,9.7
2022-08-20T05:24:46.004Z,8.8
2022-08-20T05:26:49.793Z,8.6
2022-08-20T05:28:57.762Z,8.9
2022-08-20T05:30:57.466Z,9.3
2022-08-20T05:33:04.556Z,10.2
2022-08-20T05:35:08.386Z,10
2022-08-20T05:37:12.283Z,9.2
2022-08-20T05:38:15.773Z,10.3
2022-08-20T05:40:19.658Z,8.7
2022-08-20T05:42:23.416Z,9.3
2022-08-20T05:44:27.251Z,9.4
2022-08-20T05:46:34.351Z,9.9
2022-08-20T05:48:38.194Z,9.1
2022-08-20T05:50:41.985Z,9.6
2022-08-20T05:52:45.785Z,9.3
2022-08-20T06:01:04.466Z,9.4
2022-08-20T06:03:08.201Z,8.7
2022-08-20T06:05:12.040Z,9.6
2022-08-20T06:07:15.866Z,8.7
2022-08-20T06:09:30.952Z,8
2022-08-20T06:11:23.484Z,9.3
2022-08-20T06:13:27.316Z,8.1
2022-08-20T06:19:43.542Z,8.3
2022-08-20T06:25:53.542Z,8
2022-08-20T06:27:57.540Z,9.3
2022-08-20T06:30:04.485Z,8.4
2022-08-20T06:34:12.128Z,7.5
2022-08-20T19:06:17.919Z,4.4
2022-08-20T19:08:21.722Z,3.8
2022-08-20T19:10:28.145Z,4
2022-08-20T19:12:53.820Z,3.6
2022-08-20T19:14:57.531Z,3.5
2022-08-20T19:19:08.428Z,3.8
2022-08-20T19:21:15.664Z,3.5
2022-08-20T19:23:10.200Z,4.3
2022-08-20T19:25:13.986Z,3.9
2022-08-20T19:27:17.786Z,3.8
2022-08-20T19:29:21.605Z,4
2022-08-20T19:33:44.035Z,4.7
2022-08-20T19:35:36.238Z,4.5
2022-08-20T19:37:46.556Z,5.2
2022-08-20T19:39:43.874Z,4.5
2022-08-20T19:43:51.466Z,3.8
2022-08-20T19:48:02.346Z,4.6
2022-08-20T19:50:06.167Z,4
2022-08-20T19:52:09.962Z,4.4
2022-08-20T19:54:13.877Z,4.2
2022-08-20T19:56:17.576Z,4.7
2022-08-20T19:58:26.014Z,4
2022-08-20T20:00:25.212Z,4.7
2022-08-20T20:02:32.320Z,4.8
2022-08-20T20:04:36.129Z,5.6
2022-08-20T20:06:39.954Z,6.1
2022-08-20T20:07:43.493Z,8
2022-08-20T20:09:47.284Z,8.8
2022-08-20T20:11:51.112Z,8
2022-08-20T20:13:54.915Z,8.1
2022-08-20T20:16:02.045Z,6.6
2022-08-20T20:18:05.853Z,5.3
2022-08-20T20:22:20.008Z,5
2022-08-20T20:24:17.289Z,5.2
2022-08-20T20:26:21.100Z,4.7
2022-08-20T20:28:24.906Z,5.1
2022-08-20T20:30:32.045Z,4.6
2022-08-20T20:32:35.844Z,4.7
2022-08-20T20:34:55.465Z,4.2
2022-08-20T20:38:47.344Z,4.2
2022-08-20T20:42:54.996Z,4.5
2022-08-20T20:45:02.094Z,4.2
2022-08-20T20:47:05.947Z,4.6
2022-08-20T20:49:09.750Z,4.8
2022-08-20T20:51:13.602Z,4.1
2022-08-20T20:53:17.411Z,4.8
2022-08-20T20:55:21.240Z,10.1
2022-08-20T20:57:38.046Z,9.5
2022-08-20T20:59:32.192Z,10
2022-08-20T21:03:39.866Z,8.1
2022-08-20T21:04:43.450Z,8.6
2022-08-20T21:06:47.266Z,9.3
2022-08-20T21:08:51.106Z,9
2022-08-20T21:10:54.962Z,9.7
2022-08-20T21:13:02.073Z,10
2022-08-20T21:15:05.906Z,8.9
2022-08-20T21:17:09.765Z,8.7
2022-08-20T21:19:13.568Z,6.7
2022-08-20T21:23:21.231Z,7.6
2022-08-20T21:25:25.075Z,8.6
2022-08-20T21:27:32.193Z,8.3
2022-08-20T21:29:36.049Z,7.6
2022-08-20T21:31:39.871Z,7.2
2022-08-20T21:33:43.721Z,7.1
2022-08-20T21:35:47.569Z,6.9
2022-08-20T21:37:51.413Z,6.8
2022-08-20T21:39:55.378Z,6.9
2022-08-20T21:42:02.376Z,6.5
2022-08-20T21:44:06.244Z,6.9
2022-08-20T21:46:10.100Z,7.1
2022-08-20T21:48:14.151Z,6.6
2022-08-20T21:50:18.816Z,6
2022-08-20T21:52:21.596Z,8.8
2022-08-20T21:54:25.457Z,7
2022-08-20T21:56:32.568Z,7.1
2022-08-20T21:58:36.415Z,7.3
2022-08-20T22:00:40.285Z,7.7
2022-08-20T22:03:49.600Z,8.9
2022-08-20T22:10:02.535Z,7.7
2022-08-20T22:12:06.386Z,8.2
2022-08-20T22:14:10.241Z,8.1
2022-08-20T22:16:14.078Z,7.6
2022-08-20T22:18:17.923Z,8.2
2022-08-20T22:20:21.772Z,7.4
2022-08-20T22:22:25.615Z,7.5
2022-08-20T22:24:32.731Z,8.2
2022-08-20T22:26:36.599Z,8.3
2022-08-20T22:28:40.425Z,7.7
2022-08-20T22:30:44.287Z,8.3
2022-08-20T22:34:51.996Z,7.3
2022-08-20T22:36:55.832Z,7.8
2022-08-20T22:43:10.653Z,8.2
2022-08-20T22:45:14.783Z,7.8
2022-08-20T22:47:18.317Z,7
2022-08-20T22:53:33.142Z,7.4
2022-08-20T22:55:37.002Z,6.4
2022-08-20T22:57:40.850Z,7
2022-08-20T23:00:11.203Z,6.2
2022-08-20T23:02:15.057Z,6.6
2022-08-20T23:04:18.909Z,6.5
2022-08-20T23:06:26.021Z,6.6
2022-08-20T23:08:29.866Z,5.8
2022-08-20T23:10:33.725Z,6.5
2022-08-20T23:12:37.557Z,6.7
2022-08-20T23:14:41.383Z,6.7
2022-08-20T23:16:45.248Z,7.5
2022-08-20T23:18:49.089Z,6.3
2022-08-20T23:20:56.255Z,6.8
2022-08-20T23:23:00.078Z,6
2022-08-20T23:25:03.896Z,7.1
2022-08-20T23:27:07.766Z,6.9
2022-08-20T23:29:11.613Z,5.6
2022-08-20T23:31:15.447Z,5.6
2022-08-20T23:33:19.293Z,5.8
2022-08-20T23:35:26.437Z,5.6
2022-08-20T23:37:30.297Z,6.4
2022-08-20T23:39:34.223Z,5
2022-08-20T23:43:41.855Z,6.1
2022-08-20T23:45:45.723Z,6.4
2022-08-20T23:47:49.551Z,6
2022-08-20T23:49:56.701Z,6.1
2022-08-20T23:52:00.571Z,5.2
2022-08-20T23:54:04.367Z,5.6
2022-08-20T23:55:07.949Z,5.4
2022-08-20T23:57:11.806Z,6
2022-08-20T23:59:15.749Z,5.2
